Terminal Aerodrome Forecast
Issued by NWS Wichita, KS

Home | Current Version | Previous Version | Graphics & Text | Print | Product List | Glossary On
Versions: 1 2 3 4 5 6 7 8 9 10 11 12 13 14 15 16 17 18 19 20 21 22 23 24 25 26
000
FTUS43 KICT 252330
TAFICT
TAF
KICT 252330Z 2600/2624 19012KT P6SM VCTS SCT030 BKN050CB
      TEMPO 2600/2604 VRB20G35KT 3SM +TSRA OVC025CB
     FM260400 17010KT P6SM VCTS SCT020 BKN060CB
     FM261000 19003KT 3SM BR SCT005 BKN200
     FM261700 22007KT P6SM SCT035
     FM262000 19008KT P6SM VCTS SCT040CB BKN070=

USA.gov is the U.S. government's official web portal to all federal, state and local government web resources and services.